»·PEaware :: N212MH KHQM-S23

N212MH :: KHQM-S23

FLIGHT INFORMATION

Flight Status: Arrived
Operator: Privately registered:
United States
More flights under this callsign
Pilot: Erik A. (17503)
Aircraft: AERMACCHI WARRIOR
(F260)
More flights by this aircraft type
Origin: KHQM Bowerman
United States
Destination: S23 Ione Mun
United States
More flights between these airports :: More routes between these airports
Route:
File this flight plan on PilotEdge
Remarks: Alphabet Challenge Washington Leg #8
Altitude:
(Current/Filed)
5,500ft
Speed:
(Current/Filed)
150kts
Departed: 14-Aug-20 12:12 PM
Arrived: 14-Aug-20 05:30 PM
Distance/Time
Traveled:
283nm/5:17
Distance/Time
To Go:
Arrived

Flight Plot

Page will automatically refresh every two minutes.

Flight plan parsing failed; only flown route is shown


Map Options




Map Legend


Flown Route
Filed Route
Departure Airport
Arrival Airport
Navaid (VOR, NDB)
Fix

Horizontal Profiles

Position Reports

Time Latitude Longitude Heading Altitude Ground
Speed
14-Aug-20 11:30 46.974037 -123.928224 195 15ft 0kts
14-Aug-20 11:31 46.974037 -123.928224 195 15ft 0kts
14-Aug-20 11:32 46.974037 -123.928224 195 15ft 0kts
14-Aug-20 11:33 46.974037 -123.928224 195 15ft 0kts
14-Aug-20 11:34 46.974037 -123.928224 195 15ft 0kts
14-Aug-20 11:35 46.974037 -123.928224 195 15ft 0kts
14-Aug-20 11:36 46.974037 -123.928224 195 15ft 0kts
14-Aug-20 11:37 46.974037 -123.928224 195 15ft 0kts
14-Aug-20 11:38 46.974037 -123.928224 195 15ft 0kts
14-Aug-20 11:39 46.974037 -123.928224 195 15ft 0kts
14-Aug-20 11:40 46.974037 -123.928224 195 15ft 0kts
14-Aug-20 11:41 46.974037 -123.928224 195 15ft 0kts
14-Aug-20 11:42 46.974037 -123.928224 195 15ft 0kts
14-Aug-20 11:43 46.974037 -123.928224 195 15ft 0kts
14-Aug-20 11:44 46.974037 -123.928224 195 15ft 0kts
14-Aug-20 11:45 46.974037 -123.928224 195 15ft 0kts
14-Aug-20 11:46 46.974037 -123.928224 195 15ft 0kts
14-Aug-20 11:47 46.974037 -123.928224 195 15ft 0kts
14-Aug-20 11:48 46.974037 -123.928224 195 15ft 0kts
14-Aug-20 11:49 46.974037 -123.928224 195 15ft 0kts
14-Aug-20 11:50 46.974037 -123.928224 195 15ft 0kts
14-Aug-20 11:51 46.974037 -123.928224 195 15ft 0kts
14-Aug-20 11:52 46.974037 -123.928224 195 15ft 0kts
14-Aug-20 11:53 46.974037 -123.928224 195 15ft 0kts
14-Aug-20 11:54 46.974037 -123.928224 195 15ft 0kts
14-Aug-20 11:55 46.974037 -123.928224 195 15ft 0kts
14-Aug-20 11:56 46.974037 -123.928224 195 15ft 0kts
14-Aug-20 11:57 46.974037 -123.928224 195 15ft 0kts
14-Aug-20 11:58 46.974037 -123.928224 195 15ft 0kts
14-Aug-20 11:59 46.974037 -123.928224 195 15ft 0kts
14-Aug-20 12:00 46.973970 -123.928251 196 15ft 0kts
14-Aug-20 12:01 46.973893 -123.928299 206 16ft 0kts
14-Aug-20 12:02 46.973882 -123.928307 207 16ft 0kts
14-Aug-20 12:03 46.973881 -123.928309 207 16ft 0kts
14-Aug-20 12:04 46.973881 -123.928309 207 16ft 0kts
14-Aug-20 12:05 46.973881 -123.928309 207 16ft 0kts
14-Aug-20 12:06 46.973881 -123.928309 207 16ft 0kts
14-Aug-20 12:07 46.973880 -123.928309 207 16ft 0kts
14-Aug-20 12:08 46.973094 -123.927243 132 17ft 0kts
14-Aug-20 12:09 46.973094 -123.927242 133 17ft 0kts
14-Aug-20 12:11 46.972888 -123.926951 152 17ft 9kts
14-Aug-20 12:12 46.970141 -123.954940 265 428ft 106kts
14-Aug-20 12:13 46.967776 -124.002492 264 1135ft 124kts
14-Aug-20 12:14 46.962778 -124.055157 258 1579ft 134kts
14-Aug-20 12:15 46.950082 -124.103273 229 1188ft 130kts
14-Aug-20 12:16 46.923354 -124.128889 198 612ft 101kts
14-Aug-20 12:17 46.899654 -124.104539 140 40ft 96kts
14-Aug-20 12:18 46.878036 -124.082870 189 620ft 103kts
14-Aug-20 12:19 46.855335 -124.107559 245 1157ft 100kts
14-Aug-20 12:20 46.827547 -124.112547 176 1355ft 111kts
14-Aug-20 12:21 46.795375 -124.107772 169 1495ft 119kts
14-Aug-20 12:22 46.803734 -124.063323 67 696ft 130kts
14-Aug-20 12:23 46.805950 -124.062187 235 566ft 84kts
14-Aug-20 12:24 46.793614 -124.092444 240 586ft 111kts
14-Aug-20 12:25 46.768494 -124.110303 151 1143ft 121kts
14-Aug-20 12:26 46.762490 -124.062165 88 1475ft 123kts
14-Aug-20 12:27 46.758484 -124.016856 172 1817ft 114kts
14-Aug-20 12:28 46.742724 -124.053751 251 1937ft 122kts
14-Aug-20 12:28 46.721320 -124.062641 106 1896ft 135kts
14-Aug-20 12:30 46.716332 -123.998678 78 1916ft 136kts
14-Aug-20 12:31 46.720219 -123.941210 97 1643ft 155kts
14-Aug-20 12:32 46.706798 -123.882085 105 1235ft 155kts
14-Aug-20 12:32 46.696320 -123.834421 127 983ft 140kts
14-Aug-20 12:33 46.685697 -123.807324 330 435ft 83kts
14-Aug-20 12:34 46.703503 -123.831576 315 234ft 96kts
14-Aug-20 12:36 46.694402 -123.835390 130 978ft 135kts
14-Aug-20 12:36 46.673878 -123.809167 131 1041ft 102kts
14-Aug-20 12:38 46.686879 -123.778478 17 1868ft 111kts
14-Aug-20 12:38 46.710718 -123.766518 12 2607ft 103kts
14-Aug-20 12:39 46.736707 -123.763341 2 3254ft 96kts
14-Aug-20 12:40 46.762395 -123.747390 39 3508ft 113kts
14-Aug-20 12:41 46.785998 -123.712728 43 3600ft 126kts
14-Aug-20 12:42 46.810332 -123.676615 40 3453ft 118kts
14-Aug-20 12:43 46.833845 -123.644556 42 3197ft 114kts
14-Aug-20 12:44 46.859437 -123.615177 32 3263ft 121kts
14-Aug-20 12:45 46.883694 -123.581690 51 3580ft 123kts
14-Aug-20 12:46 46.904203 -123.540109 52 3716ft 132kts
14-Aug-20 12:47 46.925396 -123.497547 40 3759ft 138kts
14-Aug-20 12:48 46.944080 -123.445019 66 3548ft 148kts
14-Aug-20 12:49 46.975035 -123.440566 301 3496ft 148kts
14-Aug-20 12:50 46.977213 -123.500842 263 3490ft 152kts
14-Aug-20 12:51 46.956799 -123.547832 178 3656ft 149kts
14-Aug-20 12:52 46.941111 -123.497730 91 3619ft 146kts
14-Aug-20 12:53 46.943616 -123.438741 69 3670ft 142kts
14-Aug-20 12:54 46.973362 -123.424162 302 3544ft 152kts
14-Aug-20 12:55 46.973804 -123.481161 224 3690ft 153kts
14-Aug-20 12:56 46.957462 -123.451683 55 3640ft 147kts
14-Aug-20 12:57 46.984935 -123.403157 51 3596ft 155kts
14-Aug-20 12:58 47.008528 -123.348034 60 3516ft 165kts
14-Aug-20 12:59 47.028485 -123.288084 58 3492ft 162kts
14-Aug-20 13:00 47.056291 -123.237008 39 3500ft 159kts
14-Aug-20 13:01 47.090377 -123.194240 35 3449ft 161kts
14-Aug-20 13:02 47.127443 -123.157931 33 3461ft 155kts
14-Aug-20 13:03 47.161684 -123.125931 30 3354ft 139kts
14-Aug-20 13:04 47.191289 -123.098331 30 3291ft 115kts
14-Aug-20 13:05 47.216422 -123.073354 31 3256ft 103kts
14-Aug-20 13:06 47.239042 -123.050846 31 3157ft 92kts
14-Aug-20 13:07 47.256285 -123.016026 68 3195ft 131kts
14-Aug-20 13:08 47.270156 -122.963741 67 2822ft 140kts
14-Aug-20 13:09 47.285733 -122.911098 61 2359ft 150kts
14-Aug-20 13:10 47.307494 -122.858770 56 1740ft 139kts
14-Aug-20 13:11 47.325447 -122.817429 55 1660ft 116kts
14-Aug-20 13:12 47.343863 -122.776489 38 1775ft 125kts
14-Aug-20 13:13 47.370178 -122.742170 39 1863ft 127kts
14-Aug-20 13:14 47.397399 -122.703972 41 1971ft 138kts
14-Aug-20 13:15 47.425399 -122.667141 43 2137ft 128kts
14-Aug-20 13:16 47.428292 -122.614966 87 2052ft 143kts
14-Aug-20 13:17 47.427063 -122.554927 90 1994ft 143kts
14-Aug-20 13:18 47.427760 -122.498291 80 2055ft 131kts
14-Aug-20 13:19 47.431877 -122.444500 80 2045ft 128kts
14-Aug-20 13:20 47.436065 -122.390187 79 2153ft 143kts
14-Aug-20 13:21 47.439610 -122.327223 85 2135ft 157kts
14-Aug-20 13:22 47.419108 -122.279878 134 2130ft 144kts
14-Aug-20 13:23 47.413958 -122.231564 50 2050ft 117kts
14-Aug-20 13:24 47.433985 -122.196324 56 1910ft 109kts
14-Aug-20 13:25 47.447461 -122.155488 56 2020ft 117kts
14-Aug-20 13:26 47.461659 -122.110692 62 2589ft 127kts
14-Aug-20 13:27 47.478143 -122.060114 59 3239ft 148kts
14-Aug-20 13:28 47.497972 -122.004732 58 3711ft 156kts
14-Aug-20 13:29 47.519499 -121.946073 59 3716ft 160kts
14-Aug-20 13:30 47.534969 -121.884844 70 3292ft 158kts
14-Aug-20 13:31 47.569675 -121.850470 46 2809ft 143kts
14-Aug-20 13:32 47.559458 -121.812639 201 1889ft 101kts
14-Aug-20 13:33 47.554778 -121.839098 287 915ft 73kts
14-Aug-20 13:34 47.559594 -121.865041 285 143ft 52kts
14-Aug-20 13:35 47.560365 -121.867370 207 143ft 0kts
14-Aug-20 13:36 47.560365 -121.867370 207 143ft 0kts
14-Aug-20 13:37 47.560365 -121.867370 207 143ft 0kts
14-Aug-20 13:38 47.560365 -121.867370 207 143ft 0kts
14-Aug-20 13:39 47.560365 -121.867370 207 143ft 0kts
14-Aug-20 13:40 47.560365 -121.867370 207 143ft 0kts
14-Aug-20 13:41 47.560365 -121.867370 207 143ft 0kts
14-Aug-20 13:42 47.560365 -121.867370 207 143ft 0kts
14-Aug-20 13:43 47.560365 -121.867370 207 143ft 0kts
14-Aug-20 13:44 47.560365 -121.867370 207 143ft 0kts
14-Aug-20 13:45 47.560365 -121.867370 207 143ft 0kts
14-Aug-20 13:46 47.560365 -121.867370 207 143ft 0kts
14-Aug-20 13:47 47.560365 -121.867370 207 143ft 0kts
14-Aug-20 13:48 47.560365 -121.867370 207 143ft 0kts
14-Aug-20 13:49 47.560365 -121.867370 207 143ft 0kts
14-Aug-20 13:50 47.560365 -121.867370 207 143ft 0kts
14-Aug-20 13:51 47.560365 -121.867370 207 143ft 0kts
14-Aug-20 13:52 47.560365 -121.867370 207 143ft 0kts
14-Aug-20 13:53 47.560365 -121.867370 207 143ft 0kts
14-Aug-20 13:54 47.560365 -121.867370 207 143ft 0kts
14-Aug-20 13:55 47.560296 -121.867335 94 143ft 0kts
14-Aug-20 13:56 47.560296 -121.867335 94 143ft 0kts
14-Aug-20 13:57 47.560296 -121.867335 94 143ft 0kts
14-Aug-20 13:58 47.560296 -121.867335 94 143ft 0kts
14-Aug-20 13:59 47.559890 -121.866528 105 143ft 13kts
14-Aug-20 14:00 47.558660 -121.860585 121 143ft 1kts
14-Aug-20 14:01 47.558692 -121.860259 285 143ft 0kts
14-Aug-20 14:02 47.561902 -121.875499 296 493ft 94kts
14-Aug-20 14:03 47.585054 -121.877665 19 1929ft 108kts
14-Aug-20 14:04 47.613621 -121.857542 26 3261ft 115kts
14-Aug-20 14:05 47.639723 -121.829669 36 4518ft 120kts
14-Aug-20 14:06 47.663094 -121.795221 34 5645ft 122kts
14-Aug-20 14:07 47.686953 -121.760827 41 6736ft 118kts
14-Aug-20 14:08 47.709337 -121.723938 40 7665ft 122kts
14-Aug-20 14:09 47.732899 -121.688309 35 8702ft 121kts
14-Aug-20 14:10 47.755053 -121.648471 35 9461ft 132kts
14-Aug-20 14:12 47.786439 -121.605088 37 9381ft 159kts
14-Aug-20 14:13 47.817445 -121.557350 38 9464ft 159kts
14-Aug-20 14:14 47.848162 -121.510074 38 9573ft 152kts
14-Aug-20 14:15 47.879340 -121.465046 35 9662ft 161kts
14-Aug-20 14:16 47.912650 -121.418821 33 9645ft 164kts
14-Aug-20 14:17 47.949738 -121.380185 27 9618ft 164kts
14-Aug-20 14:18 47.986358 -121.342689 29 9645ft 160kts
14-Aug-20 14:19 48.023419 -121.306458 30 9695ft 152kts
14-Aug-20 14:20 48.058113 -121.266607 37 9635ft 159kts
14-Aug-20 14:21 48.092495 -121.223885 28 9636ft 158kts
14-Aug-20 14:22 48.131462 -121.187545 26 9371ft 165kts
14-Aug-20 14:23 48.165034 -121.140235 61 9284ft 169kts
14-Aug-20 14:24 48.186696 -121.079040 48 9244ft 168kts
14-Aug-20 14:25 48.216186 -121.025620 43 9281ft 164kts
14-Aug-20 14:26 48.249249 -120.980881 35 9289ft 164kts
14-Aug-20 14:27 48.284707 -120.941645 36 9484ft 156kts
14-Aug-20 14:28 48.315667 -120.892958 37 9479ft 159kts
14-Aug-20 14:29 48.348132 -120.845646 43 9445ft 166kts
14-Aug-20 14:29 48.373360 -120.803322 64 9568ft 160kts
14-Aug-20 14:31 48.360188 -120.727231 134 9393ft 177kts
14-Aug-20 14:32 48.319453 -120.686967 147 9371ft 175kts
14-Aug-20 14:32 48.285136 -120.655378 151 9354ft 173kts
14-Aug-20 14:33 48.258637 -120.607520 53 9354ft 164kts
14-Aug-20 14:35 48.303486 -120.621458 323 9192ft 157kts
14-Aug-20 14:35 48.331743 -120.655293 317 9186ft 156kts
14-Aug-20 14:36 48.366071 -120.693395 322 9304ft 149kts
14-Aug-20 14:37 48.360245 -120.738429 167 9169ft 174kts
14-Aug-20 14:38 48.320590 -120.700373 145 9328ft 169kts
14-Aug-20 14:39 48.281258 -120.658990 148 9299ft 181kts
14-Aug-20 14:40 48.237534 -120.620031 149 9360ft 182kts
14-Aug-20 14:41 48.194317 -120.580956 149 9513ft 181kts
14-Aug-20 14:42 48.148644 -120.545820 155 9452ft 187kts
14-Aug-20 14:43 48.105606 -120.506107 135 9584ft 186kts
14-Aug-20 14:44 48.072301 -120.444994 123 9452ft 189kts
14-Aug-20 14:45 48.045041 -120.378153 120 9423ft 190kts
14-Aug-20 14:46 48.016426 -120.312060 127 9354ft 189kts
14-Aug-20 14:47 47.979950 -120.255957 142 9291ft 188kts
14-Aug-20 14:48 47.935308 -120.210460 148 8710ft 200kts
14-Aug-20 14:49 47.889283 -120.160011 138 7554ft 213kts
14-Aug-20 14:50 47.848231 -120.095187 126 5868ft 215kts
14-Aug-20 14:51 47.824819 -120.014701 92 4079ft 214kts
14-Aug-20 14:52 47.851595 -119.943156 47 2411ft 189kts
14-Aug-20 14:53 47.877290 -119.910420 322 2005ft 105kts
14-Aug-20 14:54 47.871456 -119.934764 219 1383ft 79kts
14-Aug-20 14:55 47.862494 -119.947337 120 1262ft 11kts
14-Aug-20 14:56 47.865073 -119.944867 50 1260ft 11kts
14-Aug-20 14:57 47.868965 -119.939276 53 1263ft 17kts
14-Aug-20 14:58 47.869399 -119.938421 55 1266ft 0kts
14-Aug-20 14:59 47.869430 -119.938355 54 1267ft 2kts
14-Aug-20 15:00 47.866714 -119.941634 222 1272ft 81kts
14-Aug-20 15:01 47.856901 -119.940487 46 2897ft 94kts
14-Aug-20 15:02 47.874942 -119.913420 49 4053ft 125kts
14-Aug-20 15:03 47.903870 -119.874194 40 4082ft 148kts
14-Aug-20 15:04 47.939077 -119.844077 11 4235ft 147kts
14-Aug-20 15:05 47.979869 -119.849513 352 4337ft 151kts
14-Aug-20 15:06 48.021165 -119.855348 359 4463ft 151kts
14-Aug-20 15:07 48.061091 -119.840818 18 4629ft 147kts
14-Aug-20 15:08 48.080352 -119.791139 84 4623ft 150kts
14-Aug-20 15:09 48.088836 -119.733505 80 3291ft 146kts
14-Aug-20 15:10 48.092392 -119.682755 74 2493ft 101kts
14-Aug-20 15:11 48.105270 -119.703590 264 1214ft 99kts
14-Aug-20 15:12 48.109745 -119.741473 344 1614ft 107kts
14-Aug-20 15:13 48.136550 -119.716950 22 2468ft 129kts
14-Aug-20 15:14 48.174802 -119.716073 356 2819ft 147kts
14-Aug-20 15:15 48.216978 -119.722197 357 2552ft 155kts
14-Aug-20 15:16 48.258639 -119.714800 20 2202ft 147kts
14-Aug-20 15:17 48.293079 -119.691908 41 2093ft 123kts
14-Aug-20 15:18 48.319926 -119.658356 39 2294ft 129kts
14-Aug-20 15:19 48.347793 -119.622448 38 2432ft 131kts
14-Aug-20 15:20 48.368610 -119.578823 54 2256ft 137kts
14-Aug-20 15:21 48.370572 -119.547064 202 1600ft 87kts
14-Aug-20 15:22 48.359637 -119.581493 294 1556ft 98kts
14-Aug-20 15:23 48.385264 -119.569918 43 2375ft 137kts
14-Aug-20 15:24 48.414178 -119.531161 25 2481ft 134kts
14-Aug-20 15:25 48.444565 -119.522905 8 1773ft 114kts
14-Aug-20 15:26 48.471723 -119.516482 9 1367ft 111kts
14-Aug-20 15:27 48.509320 -119.508536 10 1795ft 159kts
14-Aug-20 15:28 48.553058 -119.495332 9 2259ft 163kts
14-Aug-20 15:29 48.600211 -119.480853 16 1990ft 183kts
14-Aug-20 15:30 48.650615 -119.471256 1 1660ft 181kts
14-Aug-20 15:31 48.698389 -119.454483 357 1787ft 177kts
14-Aug-20 15:32 48.733080 -119.456648 138 3134ft 84kts
14-Aug-20 15:33 48.724713 -119.418418 37 4253ft 139kts
14-Aug-20 15:34 48.766075 -119.411878 1 4293ft 159kts
14-Aug-20 15:35 48.808136 -119.410030 355 4006ft 153kts
14-Aug-20 15:36 48.851561 -119.417706 353 3528ft 157kts
14-Aug-20 15:37 48.894825 -119.425208 357 3137ft 157kts
14-Aug-20 15:38 48.938861 -119.423500 342 2570ft 151kts
14-Aug-20 15:39 48.975303 -119.448667 349 2092ft 140kts
14-Aug-20 15:40 48.977866 -119.418667 170 1678ft 96kts
14-Aug-20 15:41 48.956804 -119.411131 167 1072ft 39kts
14-Aug-20 15:42 48.958476 -119.412321 348 1066ft 16kts
14-Aug-20 15:43 48.959929 -119.413051 341 1064ft 0kts
14-Aug-20 15:44 48.959929 -119.413051 341 1064ft 0kts
14-Aug-20 15:45 48.959929 -119.413051 341 1064ft 0kts
14-Aug-20 15:46 48.959929 -119.413051 341 1064ft 0kts
14-Aug-20 15:47 48.959929 -119.413051 341 1064ft 0kts
14-Aug-20 15:48 48.959929 -119.413051 341 1064ft 0kts
14-Aug-20 15:49 48.959929 -119.413051 341 1064ft 0kts
14-Aug-20 15:50 48.959929 -119.413051 341 1064ft 0kts
14-Aug-20 15:51 48.959929 -119.413051 341 1064ft 0kts
14-Aug-20 15:52 48.959929 -119.413051 341 1064ft 0kts
14-Aug-20 15:53 48.959929 -119.413051 341 1064ft 0kts
14-Aug-20 15:54 48.959929 -119.413051 341 1064ft 0kts
14-Aug-20 15:55 48.959929 -119.413051 341 1064ft 0kts
14-Aug-20 15:56 48.959946 -119.413059 341 1064ft 0kts
14-Aug-20 15:57 48.959946 -119.413059 341 1064ft 0kts
14-Aug-20 15:58 48.959946 -119.413059 341 1064ft 0kts
14-Aug-20 15:59 48.959946 -119.413059 341 1064ft 0kts
14-Aug-20 16:00 48.959946 -119.413059 341 1064ft 0kts
14-Aug-20 16:01 48.959946 -119.413059 341 1064ft 0kts
14-Aug-20 16:02 48.959946 -119.413059 341 1064ft 0kts
14-Aug-20 16:03 48.959946 -119.413059 341 1064ft 0kts
14-Aug-20 16:04 48.959946 -119.413059 341 1064ft 0kts
14-Aug-20 16:05 48.959946 -119.413059 341 1064ft 0kts
14-Aug-20 16:06 48.960296 -119.413051 26 1065ft 3kts
14-Aug-20 16:07 48.962982 -119.414027 350 1067ft 6kts
14-Aug-20 16:08 48.963146 -119.413893 71 1068ft 0kts
14-Aug-20 16:09 48.963008 -119.413475 164 1070ft 12kts
14-Aug-20 16:11 48.942829 -119.419645 275 2083ft 115kts
14-Aug-20 16:12 48.972067 -119.430153 45 3249ft 118kts
14-Aug-20 16:13 48.949492 -119.400282 167 3956ft 144kts
14-Aug-20 16:14 48.934328 -119.440449 309 4742ft 131kts
14-Aug-20 16:15 48.972888 -119.448482 31 4671ft 152kts
14-Aug-20 16:16 48.971839 -119.401135 153 4739ft 148kts
14-Aug-20 16:17 48.957649 -119.346764 115 4806ft 153kts
14-Aug-20 16:18 48.932917 -119.297768 126 5015ft 142kts
14-Aug-20 16:19 48.911718 -119.245189 129 5110ft 145kts
14-Aug-20 16:20 48.877338 -119.215055 170 5169ft 144kts
14-Aug-20 16:21 48.841163 -119.230433 225 5367ft 138kts
14-Aug-20 16:22 48.826708 -119.284194 265 5442ft 143kts
14-Aug-20 16:23 48.820079 -119.339333 209 5169ft 123kts
14-Aug-20 16:24 48.781877 -119.339553 179 4566ft 139kts
14-Aug-20 16:25 48.745728 -119.334397 142 3476ft 131kts
14-Aug-20 16:26 48.747828 -119.312273 328 2979ft 88kts
14-Aug-20 16:27 48.757979 -119.329564 173 2748ft 89kts
14-Aug-20 16:28 48.735747 -119.309430 157 2949ft 96kts
14-Aug-20 16:28 48.722969 -119.283684 125 4294ft 106kts
14-Aug-20 16:29 48.692699 -119.263306 154 4636ft 136kts
14-Aug-20 16:31 48.665404 -119.213775 119 4494ft 132kts
14-Aug-20 16:31 48.650205 -119.176154 132 4182ft 101kts
14-Aug-20 16:32 48.632220 -119.150262 151 3362ft 89kts
14-Aug-20 16:33 48.613196 -119.130668 138 3101ft 85kts
14-Aug-20 16:34 48.597667 -119.101917 139 2671ft 89kts
14-Aug-20 16:35 48.582146 -119.074880 122 2845ft 81kts
14-Aug-20 16:36 48.567548 -119.046533 113 3400ft 95kts
14-Aug-20 16:37 48.551200 -119.009569 119 4670ft 128kts
14-Aug-20 16:38 48.537895 -118.951664 115 4717ft 156kts
14-Aug-20 16:39 48.516448 -118.898206 131 5127ft 145kts
14-Aug-20 16:40 48.485887 -118.856750 139 5436ft 144kts
14-Aug-20 16:41 48.455400 -118.816787 112 5562ft 156kts
14-Aug-20 16:42 48.460916 -118.755840 54 5914ft 155kts
14-Aug-20 16:43 48.499097 -118.732039 1 6161ft 152kts
14-Aug-20 16:44 48.540571 -118.740727 349 6301ft 154kts
14-Aug-20 16:45 48.582133 -118.727384 23 6346ft 164kts
14-Aug-20 16:46 48.622249 -118.691130 31 5657ft 176kts
14-Aug-20 16:47 48.667007 -118.664465 2 3609ft 174kts
14-Aug-20 16:48 48.708880 -118.658270 3 2671ft 92kts
14-Aug-20 16:49 48.733482 -118.655818 349 3042ft 111kts
14-Aug-20 16:50 48.768850 -118.652604 31 3702ft 136kts
14-Aug-20 16:51 48.796155 -118.612696 35 4113ft 134kts
14-Aug-20 16:52 48.829896 -118.596668 350 4629ft 130kts
14-Aug-20 16:53 48.866762 -118.601823 1 4891ft 139kts
14-Aug-20 16:54 48.903822 -118.589259 44 5265ft 138kts
14-Aug-20 16:55 48.899006 -118.532975 114 5504ft 140kts
14-Aug-20 16:56 48.880975 -118.480720 127 5803ft 138kts
14-Aug-20 16:57 48.866417 -118.426399 105 6086ft 141kts
14-Aug-20 16:58 48.853121 -118.370220 119 6361ft 140kts
14-Aug-20 16:59 48.834657 -118.317570 121 6589ft 143kts
14-Aug-20 17:00 48.814164 -118.262886 125 6487ft 155kts
14-Aug-20 17:01 48.782894 -118.219848 148 6414ft 151kts
14-Aug-20 17:02 48.747045 -118.182429 151 6091ft 156kts
14-Aug-20 17:03 48.706480 -118.154499 152 5186ft 159kts
14-Aug-20 17:04 48.670600 -118.118122 134 3580ft 159kts
14-Aug-20 17:05 48.675472 -118.063897 43 2656ft 121kts
14-Aug-20 17:06 48.702347 -118.055278 61 1830ft 90kts
14-Aug-20 17:07 48.720247 -118.036105 324 2214ft 128kts
14-Aug-20 17:08 48.755165 -118.045393 27 2621ft 148kts
14-Aug-20 17:09 48.788083 -118.012921 29 2615ft 126kts
14-Aug-20 17:10 48.818454 -117.989012 28 2705ft 112kts
14-Aug-20 17:11 48.845800 -117.965037 24 2508ft 114kts
14-Aug-20 17:12 48.863728 -117.933075 62 2423ft 100kts
14-Aug-20 17:13 48.869370 -117.894076 60 2370ft 99kts
14-Aug-20 17:14 48.879822 -117.849448 60 2293ft 128kts
14-Aug-20 17:15 48.907056 -117.810666 36 2381ft 143kts
14-Aug-20 17:16 48.930035 -117.769974 86 2125ft 115kts
14-Aug-20 17:17 48.938859 -117.730926 55 1805ft 83kts
14-Aug-20 17:18 48.945822 -117.725222 186 2381ft 124kts
14-Aug-20 17:19 48.914050 -117.733367 172 3434ft 119kts
14-Aug-20 17:20 48.880006 -117.716200 165 3459ft 138kts
14-Aug-20 17:21 48.842837 -117.702042 154 3377ft 133kts
14-Aug-20 17:22 48.827028 -117.655690 89 3307ft 137kts
14-Aug-20 17:23 48.809710 -117.606865 123 4330ft 135kts
14-Aug-20 17:24 48.789080 -117.558657 119 5193ft 140kts
14-Aug-20 17:25 48.770306 -117.504774 138 5151ft 150kts
14-Aug-20 17:26 48.741028 -117.456028 129 4265ft 163kts
14-Aug-20 17:27 48.708929 -117.418104 96 3479ft 134kts
14-Aug-20 17:28 48.724761 -117.406708 259 2930ft 101kts
14-Aug-20 17:29 48.707993 -117.413126 144 2117ft 21kts
14-Aug-20 17:30 48.708015 -117.413301 330 2117ft 0kts
14-Aug-20 17:31 48.711427 -117.414192 348 2116ft 27kts
14-Aug-20 17:32 48.713481 -117.413569 254 2114ft 0kts
14-Aug-20 17:33 48.713477 -117.413594 253 2114ft 0kts
14-Aug-20 17:34 48.713477 -117.413594 253 2114ft 0kts
14-Aug-20 17:35 48.713477 -117.413594 253 2114ft 0kts
14-Aug-20 17:36 48.713477 -117.413594 253 2114ft 0kts
14-Aug-20 17:37 48.713477 -117.413594 253 2114ft 0kts
14-Aug-20 17:38 48.713477 -117.413594 253 2114ft 0kts
14-Aug-20 17:39 48.713477 -117.413594 253 2114ft 0kts
14-Aug-20 17:40 48.713477 -117.413594 253 2114ft 0kts
14-Aug-20 17:41 48.713477 -117.413594 253 2114ft 0kts

Navigation Log

Ident Type
Flight plan parsing failed, navigation log unavailable